sensor_id;sensor_type;location;lat;lon;timestamp;pressure;altitude;pressure_sealevel;temperature;humidity
49297;BME280;35163;48.878;18.040;2023-02-02T00:01:33;97938.09;;;4.65;67.33
49297;BME280;35163;48.878;18.040;2023-02-02T00:04:00;97930.47;;;4.59;67.86
49297;BME280;35163;48.878;18.040;2023-02-02T00:06:28;97914.28;;;4.57;68.39
49297;BME280;35163;48.878;18.040;2023-02-02T00:09:00;97922.81;;;4.57;68.18
49297;BME280;35163;48.878;18.040;2023-02-02T00:11:27;97931.34;;;4.58;67.58
49297;BME280;35163;48.878;18.040;2023-02-02T00:13:53;97944.00;;;4.67;68.62
49297;BME280;35163;48.878;18.040;2023-02-02T00:18:54;97943.19;;;4.67;68.81
49297;BME280;35163;48.878;18.040;2023-02-02T00:21:27;97925.31;;;4.62;69.10
49297;BME280;35163;48.878;18.040;2023-02-02T00:23:54;97919.41;;;4.58;69.12
49297;BME280;35163;48.878;18.040;2023-02-02T00:26:21;97909.19;;;4.55;68.91
49297;BME280;35163;48.878;18.040;2023-02-02T00:28:48;97904.81;;;4.62;68.67
49297;BME280;35163;48.878;18.040;2023-02-02T00:31:14;97910.72;;;4.67;68.32
49297;BME280;35163;48.878;18.040;2023-02-02T00:33:45;97915.09;;;4.59;67.71
49297;BME280;35163;48.878;18.040;2023-02-02T00:36:15;97920.97;;;4.66;67.45
49297;BME280;35163;48.878;18.040;2023-02-02T00:38:42;97919.38;;;4.60;67.03
49297;BME280;35163;48.878;18.040;2023-02-02T00:41:10;97929.56;;;4.63;67.75
49297;BME280;35163;48.878;18.040;2023-02-02T00:43:37;97940.66;;;4.65;67.46
49297;BME280;35163;48.878;18.040;2023-02-02T00:46:03;97944.03;;;4.66;66.84
49297;BME280;35163;48.878;18.040;2023-02-02T00:48:31;97953.53;;;4.57;67.18
49297;BME280;35163;48.878;18.040;2023-02-02T00:51:00;97949.25;;;4.59;67.44
49297;BME280;35163;48.878;18.040;2023-02-02T00:53:29;97943.28;;;4.59;67.02
49297;BME280;35163;48.878;18.040;2023-02-02T00:55:58;97937.31;;;4.60;67.20
49297;BME280;35163;48.878;18.040;2023-02-02T00:58:28;97940.66;;;4.65;66.44
49297;BME280;35163;48.878;18.040;2023-02-02T01:00:55;97944.03;;;4.66;66.13
49297;BME280;35163;48.878;18.040;2023-02-02T01:03:22;97938.00;;;4.70;66.33
49297;BME280;35163;48.878;18.040;2023-02-02T01:05:48;97939.59;;;4.77;66.30
49297;BME280;35163;48.878;18.040;2023-02-02T01:08:20;97943.13;;;4.70;65.83
49297;BME280;35163;48.878;18.040;2023-02-02T01:10:47;97941.34;;;4.75;65.76
49297;BME280;35163;48.878;18.040;2023-02-02T01:13:13;97939.59;;;4.79;66.45
49297;BME280;35163;48.878;18.040;2023-02-02T01:15:40;97942.13;;;4.80;66.03
49297;BME280;35163;48.878;18.040;2023-02-02T01:18:06;97941.22;;;4.81;65.45
49297;BME280;35163;48.878;18.040;2023-02-02T01:20:33;97948.91;;;4.83;64.97
49297;BME280;35163;48.878;18.040;2023-02-02T01:23:00;97940.31;;;4.87;65.18
49297;BME280;35163;48.878;18.040;2023-02-02T01:25:26;97938.75;;;4.77;64.64
49297;BME280;35163;48.878;18.040;2023-02-02T01:27:53;97934.38;;;4.83;64.84
49297;BME280;35163;48.878;18.040;2023-02-02T01:30:20;97940.44;;;4.78;64.58
49297;BME280;35163;48.878;18.040;2023-02-02T01:32:51;97933.50;;;4.84;64.67
49297;BME280;35163;48.878;18.040;2023-02-02T01:35:20;97929.94;;;4.93;64.56
49297;BME280;35163;48.878;18.040;2023-02-02T01:37:47;97941.91;;;4.94;63.49
49297;BME280;35163;48.878;18.040;2023-02-02T01:40:18;97929.09;;;4.94;63.39
49297;BME280;35163;48.878;18.040;2023-02-02T01:42:44;97931.66;;;4.93;63.71
49297;BME280;35163;48.878;18.040;2023-02-02T01:47:49;97931.72;;;4.88;64.64
49297;BME280;35163;48.878;18.040;2023-02-02T01:50:19;97934.28;;;4.90;64.30
49297;BME280;35163;48.878;18.040;2023-02-02T01:52:48;97936.94;;;4.83;64.75
49297;BME280;35163;48.878;18.040;2023-02-02T01:55:19;97945.50;;;4.81;64.65
49297;BME280;35163;48.878;18.040;2023-02-02T01:58:09;97935.22;;;4.84;65.33
49297;BME280;35163;48.878;18.040;2023-02-02T02:00:38;97937.84;;;4.79;65.14
49297;BME280;35163;48.878;18.040;2023-02-02T02:03:10;97943.78;;;4.81;64.70
49297;BME280;35163;48.878;18.040;2023-02-02T02:05:42;97937.03;;;4.79;64.71
49297;BME280;35163;48.878;18.040;2023-02-02T02:08:20;97933.63;;;4.77;64.57
49297;BME280;35163;48.878;18.040;2023-02-02T02:10:47;97942.19;;;4.74;64.23
49297;BME280;35163;48.878;18.040;2023-02-02T02:13:18;97934.50;;;4.77;64.09
49297;BME280;35163;48.878;18.040;2023-02-02T02:15:57;97933.69;;;4.73;64.62
49297;BME280;35163;48.878;18.040;2023-02-02T02:28:19;97948.19;;;4.73;64.79
49297;BME280;35163;48.878;18.040;2023-02-02T02:39:33;97942.16;;;4.79;62.56
49297;BME280;35163;48.878;18.040;2023-02-02T02:42:25;97946.31;;;4.84;62.36
49297;BME280;35163;48.878;18.040;2023-02-02T02:44:54;97946.31;;;4.84;62.42
49297;BME280;35163;48.878;18.040;2023-02-02T02:47:24;97936.28;;;4.72;62.47
49297;BME280;35163;48.878;18.040;2023-02-02T02:49:51;97947.31;;;4.76;62.45
49297;BME280;35163;48.878;18.040;2023-02-02T02:52:17;97948.09;;;4.79;62.15
49297;BME280;35163;48.878;18.040;2023-02-02T02:54:50;97947.28;;;4.77;62.43
49297;BME280;35163;48.878;18.040;2023-02-02T02:57:43;97940.53;;;4.71;62.52
49297;BME280;35163;48.878;18.040;2023-02-02T03:00:20;97937.06;;;4.76;62.76
49297;BME280;35163;48.878;18.040;2023-02-02T03:08:47;97941.34;;;4.75;63.19
49297;BME280;35163;48.878;18.040;2023-02-02T03:11:16;97949.03;;;4.75;63.66
49297;BME280;35163;48.878;18.040;2023-02-02T03:13:43;97941.28;;;4.78;63.41
49297;BME280;35163;48.878;18.040;2023-02-02T03:16:10;97942.19;;;4.74;63.67
49297;BME280;35163;48.878;18.040;2023-02-02T03:18:37;97948.16;;;4.76;63.33
49297;BME280;35163;48.878;18.040;2023-02-02T03:21:04;97961.84;;;4.75;63.59
49297;BME280;35163;48.878;18.040;2023-02-02T03:23:31;97956.75;;;4.73;63.57
49297;BME280;35163;48.878;18.040;2023-02-02T03:25:57;97969.53;;;4.73;63.44
49297;BME280;35163;48.878;18.040;2023-02-02T03:28:26;97974.66;;;4.75;63.43
49297;BME280;35163;48.878;18.040;2023-02-02T03:30:53;97978.00;;;4.79;63.58
49297;BME280;35163;48.878;18.040;2023-02-02T03:33:23;97976.28;;;4.78;63.38
49297;BME280;35163;48.878;18.040;2023-02-02T03:35:50;97980.63;;;4.74;63.71
49297;BME280;35163;48.878;18.040;2023-02-02T03:38:17;97979.66;;;4.81;63.86
49297;BME280;35163;48.878;18.040;2023-02-02T03:40:43;97977.09;;;4.81;64.14
49297;BME280;35163;48.878;18.040;2023-02-02T03:43:12;97971.97;;;4.81;63.68
49297;BME280;35163;48.878;18.040;2023-02-02T03:45:39;97976.19;;;4.85;64.29
49297;BME280;35163;48.878;18.040;2023-02-02T03:48:08;97981.22;;;4.92;65.57
49297;BME280;35163;48.878;18.040;2023-02-02T03:50:35;97970.94;;;4.93;64.34
49297;BME280;35163;48.878;18.040;2023-02-02T03:53:02;97975.25;;;4.91;64.53
49297;BME280;35163;48.878;18.040;2023-02-02T03:55:33;97977.78;;;4.94;65.21
49297;BME280;35163;48.878;18.040;2023-02-02T03:58:02;97964.91;;;4.97;65.04
49297;BME280;35163;48.878;18.040;2023-02-02T04:00:28;97973.41;;;5.01;65.67
49297;BME280;35163;48.878;18.040;2023-02-02T04:02:55;97965.75;;;4.96;64.97
49297;BME280;35163;48.878;18.040;2023-02-02T04:05:22;97976.91;;;4.94;65.11
49297;BME280;35163;48.878;18.040;2023-02-02T04:07:50;97968.34;;;4.95;65.30
49297;BME280;35163;48.878;18.040;2023-02-02T04:10:17;97970.06;;;4.96;65.23
49297;BME280;35163;48.878;18.040;2023-02-02T04:12:44;97978.72;;;4.89;65.66
49297;BME280;35163;48.878;18.040;2023-02-02T04:15:10;97963.44;;;4.81;64.62
49297;BME280;35163;48.878;18.040;2023-02-02T04:17:38;97975.41;;;4.80;64.77
49297;BME280;35163;48.878;18.040;2023-02-02T04:20:04;97983.13;;;4.79;65.80
49297;BME280;35163;48.878;18.040;2023-02-02T04:22:32;97991.69;;;4.76;66.32
49297;BME280;35163;48.878;18.040;2023-02-02T04:24:58;97993.44;;;4.76;66.98
49297;BME280;35163;48.878;18.040;2023-02-02T04:27:25;97986.59;;;4.74;67.42
49297;BME280;35163;48.878;18.040;2023-02-02T04:29:54;97981.53;;;4.70;68.20
49297;BME280;35163;48.878;18.040;2023-02-02T04:32:23;97990.94;;;4.69;69.13
49297;BME280;35163;48.878;18.040;2023-02-02T04:34:53;97982.41;;;4.69;69.03
49297;BME280;35163;48.878;18.040;2023-02-02T04:37:19;97993.44;;;4.72;68.38
49297;BME280;35163;48.878;18.040;2023-02-02T04:39:47;97999.41;;;4.74;68.17
49297;BME280;35163;48.878;18.040;2023-02-02T04:42:13;98007.09;;;4.74;68.45
49297;BME280;35163;48.878;18.040;2023-02-02T04:44:40;98009.88;;;4.57;69.20
49297;BME280;35163;48.878;18.040;2023-02-02T04:47:06;97997.94;;;4.58;69.14
49297;BME280;35163;48.878;18.040;2023-02-02T04:49:33;97997.00;;;4.62;69.17
49297;BME280;35163;48.878;18.040;2023-02-02T04:52:02;98009.03;;;4.58;69.36
49297;BME280;35163;48.878;18.040;2023-02-02T04:54:31;98008.25;;;4.50;69.56
49297;BME280;35163;48.878;18.040;2023-02-02T04:57:01;98009.22;;;4.44;70.08
49297;BME280;35163;48.878;18.040;2023-02-02T04:59:29;98016.91;;;4.43;69.91
49297;BME280;35163;48.878;18.040;2023-02-02T05:01:59;98019.50;;;4.41;70.35
49297;BME280;35163;48.878;18.040;2023-02-02T05:04:26;98018.63;;;4.42;69.89
49297;BME280;35163;48.878;18.040;2023-02-02T05:06:55;98020.28;;;4.45;69.96
49297;BME280;35163;48.878;18.040;2023-02-02T05:09:22;98020.97;;;4.59;70.08
49297;BME280;35163;48.878;18.040;2023-02-02T05:11:51;98021.84;;;4.58;70.22
49297;BME280;35163;48.878;18.040;2023-02-02T05:14:20;98028.69;;;4.56;70.29
49297;BME280;35163;48.878;18.040;2023-02-02T05:16:47;98027.84;;;4.56;70.12
49297;BME280;35163;48.878;18.040;2023-02-02T05:19:15;98027.94;;;4.49;70.37
49297;BME280;35163;48.878;18.040;2023-02-02T05:21:43;98027.88;;;4.53;69.88
49297;BME280;35163;48.878;18.040;2023-02-02T05:24:11;98033.63;;;4.69;69.70
49297;BME280;35163;48.878;18.040;2023-02-02T05:26:37;98038.69;;;4.75;69.14
49297;BME280;35163;48.878;18.040;2023-02-02T05:29:04;98040.44;;;4.71;69.03
49297;BME280;35163;48.878;18.040;2023-02-02T05:31:32;98038.72;;;4.72;68.93
49297;BME280;35163;48.878;18.040;2023-02-02T05:33:59;98045.59;;;4.70;68.70
49297;BME280;35163;48.878;18.040;2023-02-02T05:36:26;98043.09;;;4.62;68.25
49297;BME280;35163;48.878;18.040;2023-02-02T05:38:53;98045.53;;;4.73;68.37
49297;BME280;35163;48.878;18.040;2023-02-02T05:41:19;98041.25;;;4.75;67.77
49297;BME280;35163;48.878;18.040;2023-02-02T05:43:46;98040.31;;;4.79;68.03
49297;BME280;35163;48.878;18.040;2023-02-02T05:46:15;98045.50;;;4.76;67.73
49297;BME280;35163;48.878;18.040;2023-02-02T05:48:42;98038.72;;;4.72;67.61
49297;BME280;35163;48.878;18.040;2023-02-02T05:51:13;98037.91;;;4.70;67.90
49297;BME280;35163;48.878;18.040;2023-02-02T05:53:40;98040.31;;;4.79;67.87
49297;BME280;35163;48.878;18.040;2023-02-02T05:56:06;98036.16;;;4.72;67.64
49297;BME280;35163;48.878;18.040;2023-02-02T05:58:33;98035.31;;;4.71;67.36
49297;BME280;35163;48.878;18.040;2023-02-02T06:01:00;98043.00;;;4.71;67.94
49297;BME280;35163;48.878;18.040;2023-02-02T06:03:26;98039.69;;;4.65;67.81
49297;BME280;35163;48.878;18.040;2023-02-02T06:05:56;98030.22;;;4.70;67.79
49297;BME280;35163;48.878;18.040;2023-02-02T06:08:22;98014.84;;;4.70;67.34
49297;BME280;35163;48.878;18.040;2023-02-02T06:10:49;98021.56;;;4.79;67.08
49297;BME280;35163;48.878;18.040;2023-02-02T06:13:15;98019.06;;;4.72;67.48
49297;BME280;35163;48.878;18.040;2023-02-02T06:15:42;98026.91;;;4.61;66.62
49297;BME280;35163;48.878;18.040;2023-02-02T06:18:09;98033.63;;;4.69;66.91
49297;BME280;35163;48.878;18.040;2023-02-02T06:20:35;98032.72;;;4.73;66.58
49297;BME280;35163;48.878;18.040;2023-02-02T06:23:03;98032.78;;;4.70;65.12
49297;BME280;35163;48.878;18.040;2023-02-02T06:25:29;98037.06;;;4.68;65.51
49297;BME280;35163;48.878;18.040;2023-02-02T06:27:57;98027.63;;;4.71;65.42
49297;BME280;35163;48.878;18.040;2023-02-02T06:30:25;98031.84;;;4.76;65.90
49297;BME280;35163;48.878;18.040;2023-02-02T06:32:52;98028.44;;;4.75;64.77
49297;BME280;35163;48.878;18.040;2023-02-02T06:35:19;98040.41;;;4.73;64.40
49297;BME280;35163;48.878;18.040;2023-02-02T06:37:45;98037.78;;;4.78;64.39
49297;BME280;35163;48.878;18.040;2023-02-02T06:40:12;98031.94;;;4.68;65.00
49297;BME280;35163;48.878;18.040;2023-02-02T06:42:39;98031.91;;;4.71;65.04
49297;BME280;35163;48.878;18.040;2023-02-02T06:45:06;98037.88;;;4.71;64.56
49297;BME280;35163;48.878;18.040;2023-02-02T06:47:33;98050.69;;;4.71;64.75
49297;BME280;35163;48.878;18.040;2023-02-02T06:49:59;98047.34;;;4.65;64.80
49297;BME280;35163;48.878;18.040;2023-02-02T06:52:26;98052.47;;;4.65;65.22
49297;BME280;35163;48.878;18.040;2023-02-02T06:54:53;98051.56;;;4.69;65.09
49297;BME280;35163;48.878;18.040;2023-02-02T06:57:19;98059.28;;;4.66;65.34
49297;BME280;35163;48.878;18.040;2023-02-02T06:59:46;98066.88;;;4.73;65.66
49297;BME280;35163;48.878;18.040;2023-02-02T07:02:13;98070.22;;;4.79;65.80
49297;BME280;35163;48.878;18.040;2023-02-02T07:04:39;98067.75;;;4.71;64.98
49297;BME280;35163;48.878;18.040;2023-02-02T07:07:12;98074.53;;;4.75;65.05
49297;BME280;35163;48.878;18.040;2023-02-02T07:09:38;98076.19;;;4.79;65.36
49297;BME280;35163;48.878;18.040;2023-02-02T07:12:05;98074.50;;;4.78;65.58
49297;BME280;35163;48.878;18.040;2023-02-02T07:14:32;98077.25;;;4.64;64.13
49297;BME280;35163;48.878;18.040;2023-02-02T07:16:58;98076.28;;;4.73;64.43
49297;BME280;35163;48.878;18.040;2023-02-02T07:19:25;98078.03;;;4.68;63.87
49297;BME280;35163;48.878;18.040;2023-02-02T07:21:51;98089.88;;;4.77;64.61
49297;BME280;35163;48.878;18.040;2023-02-02T07:24:20;98081.31;;;4.79;65.00
49297;BME280;35163;48.878;18.040;2023-02-02T07:26:47;98092.31;;;4.88;64.10
49297;BME280;35163;48.878;18.040;2023-02-02T07:29:14;98085.56;;;4.82;64.23
49297;BME280;35163;48.878;18.040;2023-02-02T07:31:40;98088.91;;;4.87;63.64
49297;BME280;35163;48.878;18.040;2023-02-02T07:34:07;98082.06;;;4.88;63.98
49297;BME280;35163;48.878;18.040;2023-02-02T07:36:34;98090.56;;;4.90;63.94
49297;BME280;35163;48.878;18.040;2023-02-02T07:39:01;98086.28;;;4.92;63.76
49297;BME280;35163;48.878;18.040;2023-02-02T07:41:30;98104.22;;;4.92;63.29
49297;BME280;35163;48.878;18.040;2023-02-02T07:43:58;98106.78;;;4.92;63.29
49297;BME280;35163;48.878;18.040;2023-02-02T07:46:25;98097.34;;;4.94;63.98
49297;BME280;35163;48.878;18.040;2023-02-02T07:48:53;98099.81;;;5.00;63.41
49297;BME280;35163;48.878;18.040;2023-02-02T07:51:23;98095.44;;;5.07;62.78
49297;BME280;35163;48.878;18.040;2023-02-02T07:53:52;98100.59;;;5.05;62.89
49297;BME280;35163;48.878;18.040;2023-02-02T07:56:21;98103.91;;;5.12;63.12
49297;BME280;35163;48.878;18.040;2023-02-02T07:58:51;98098.00;;;5.08;62.58
49297;BME280;35163;48.878;18.040;2023-02-02T08:01:18;98092.84;;;5.12;62.45
49297;BME280;35163;48.878;18.040;2023-02-02T08:03:49;98091.06;;;5.17;62.24
49297;BME280;35163;48.878;18.040;2023-02-02T08:06:23;98093.63;;;5.15;62.25
49297;BME280;35163;48.878;18.040;2023-02-02T08:08:50;98083.38;;;5.15;63.16
49297;BME280;35163;48.878;18.040;2023-02-02T08:11:20;98077.31;;;5.21;64.02
49297;BME280;35163;48.878;18.040;2023-02-02T08:13:49;98095.22;;;5.24;63.99
49297;BME280;35163;48.878;18.040;2023-02-02T08:16:16;98089.28;;;5.20;63.18
49297;BME280;35163;48.878;18.040;2023-02-02T08:18:43;98089.19;;;5.28;63.44
49297;BME280;35163;48.878;18.040;2023-02-02T08:21:10;98093.25;;;5.40;64.09
49297;BME280;35163;48.878;18.040;2023-02-02T08:23:38;98095.84;;;5.39;63.90
49297;BME280;35163;48.878;18.040;2023-02-02T08:26:09;98097.41;;;5.49;63.65
49297;BME280;35163;48.878;18.040;2023-02-02T08:28:37;98099.88;;;5.54;63.52
49297;BME280;35163;48.878;18.040;2023-02-02T08:31:27;98110.25;;;5.47;62.81
49297;BME280;35163;48.878;18.040;2023-02-02T08:33:52;98111.97;;;5.47;63.01
49297;BME280;35163;48.878;18.040;2023-02-02T08:36:21;98102.44;;;5.55;62.55
49297;BME280;35163;48.878;18.040;2023-02-02T08:38:49;98110.75;;;5.68;62.76
49297;BME280;35163;48.878;18.040;2023-02-02T08:41:18;98114.19;;;5.69;63.10
49297;BME280;35163;48.878;18.040;2023-02-02T08:43:45;98114.91;;;5.77;63.18
49297;BME280;35163;48.878;18.040;2023-02-02T08:46:13;98108.81;;;5.83;62.40
49297;BME280;35163;48.878;18.040;2023-02-02T08:48:41;98112.28;;;5.80;61.61
49297;BME280;35163;48.878;18.040;2023-02-02T08:51:13;98116.50;;;5.84;62.36
49297;BME280;35163;48.878;18.040;2023-02-02T08:53:41;98119.25;;;5.72;61.04
49297;BME280;35163;48.878;18.040;2023-02-02T08:56:17;98114.91;;;5.77;61.32
49297;BME280;35163;48.878;18.040;2023-02-02T08:58:57;98119.22;;;5.75;61.92
49297;BME280;35163;48.878;18.040;2023-02-02T09:01:28;98116.66;;;5.75;61.89
49297;BME280;35163;48.878;18.040;2023-02-02T09:04:06;98117.53;;;5.72;61.19
49297;BME280;35163;48.878;18.040;2023-02-02T09:06:38;98121.69;;;5.81;61.19
49297;BME280;35163;48.878;18.040;2023-02-02T09:09:08;98107.25;;;5.74;59.52
49297;BME280;35163;48.878;18.040;2023-02-02T09:11:36;98123.44;;;5.78;60.43
49297;BME280;35163;48.878;18.040;2023-02-02T09:14:03;98129.44;;;5.78;60.34
49297;BME280;35163;48.878;18.040;2023-02-02T09:16:33;98127.84;;;5.71;60.42
49297;BME280;35163;48.878;18.040;2023-02-02T09:19:00;98135.63;;;5.66;60.69
49297;BME280;35163;48.878;18.040;2023-02-02T09:21:27;98136.41;;;5.68;61.01
49297;BME280;35163;48.878;18.040;2023-02-02T09:23:53;98130.56;;;5.60;60.56
49297;BME280;35163;48.878;18.040;2023-02-02T09:26:22;98144.19;;;5.64;61.60
49297;BME280;35163;48.878;18.040;2023-02-02T09:28:52;98134.69;;;5.69;61.84
49297;BME280;35163;48.878;18.040;2023-02-02T09:31:20;98150.97;;;5.68;60.96
49297;BME280;35163;48.878;18.040;2023-02-02T09:33:47;98132.91;;;5.74;60.83
49297;BME280;35163;48.878;18.040;2023-02-02T09:36:16;98132.00;;;5.78;60.83
49297;BME280;35163;48.878;18.040;2023-02-02T09:38:43;98135.47;;;5.74;60.43
49297;BME280;35163;48.878;18.040;2023-02-02T09:47:17;98132.78;;;5.80;58.80
49297;BME280;35163;48.878;18.040;2023-02-02T09:52:26;98142.91;;;5.90;57.52
49297;BME280;35163;48.878;18.040;2023-02-02T09:54:58;98142.88;;;5.93;58.96
49297;BME280;35163;48.878;18.040;2023-02-02T09:57:32;98129.97;;;5.96;57.04
49297;BME280;35163;48.878;18.040;2023-02-02T10:00:05;98135.94;;;5.98;57.93
49297;BME280;35163;48.878;18.040;2023-02-02T10:02:43;98126.44;;;6.03;57.50
49297;BME280;35163;48.878;18.040;2023-02-02T10:05:18;98137.66;;;5.99;55.38
49297;BME280;35163;48.878;18.040;2023-02-02T10:07:50;98138.47;;;6.00;55.28
49297;BME280;35163;48.878;18.040;2023-02-02T10:10:28;98141.94;;;5.97;55.54
49297;BME280;35163;48.878;18.040;2023-02-02T10:13:04;98147.16;;;5.94;57.02
49297;BME280;35163;48.878;18.040;2023-02-02T10:18:44;98147.06;;;5.99;55.76
49297;BME280;35163;48.878;18.040;2023-02-02T10:21:21;98147.88;;;6.01;57.36
49297;BME280;35163;48.878;18.040;2023-02-02T10:23:51;98133.25;;;6.07;56.33
49297;BME280;35163;48.878;18.040;2023-02-02T10:29:31;98134.97;;;6.07;56.00
49297;BME280;35163;48.878;18.040;2023-02-02T10:32:20;98144.47;;;6.00;55.72
49297;BME280;35163;48.878;18.040;2023-02-02T10:49:18;98136.88;;;5.94;55.85
49297;BME280;35163;48.878;18.040;2023-02-02T10:51:53;98130.81;;;5.98;56.46
49297;BME280;35163;48.878;18.040;2023-02-02T11:00:24;98148.75;;;6.00;55.61
49297;BME280;35163;48.878;18.040;2023-02-02T11:02:52;98151.22;;;6.04;55.68
49297;BME280;35163;48.878;18.040;2023-02-02T11:05:24;98147.81;;;6.05;56.07
49297;BME280;35163;48.878;18.040;2023-02-02T11:08:12;98145.25;;;6.05;56.97
49297;BME280;35163;48.878;18.040;2023-02-02T11:10:41;98149.53;;;6.03;55.89
49297;BME280;35163;48.878;18.040;2023-02-02T11:13:13;98141.00;;;6.01;55.31
49297;BME280;35163;48.878;18.040;2023-02-02T11:15:41;98150.34;;;6.08;55.80
49297;BME280;35163;48.878;18.040;2023-02-02T11:18:24;98142.63;;;6.08;56.68
49297;BME280;35163;48.878;18.040;2023-02-02T11:20:52;98140.00;;;6.12;55.83
49297;BME280;35163;48.878;18.040;2023-02-02T11:23:19;98147.72;;;6.12;55.73
49297;BME280;35163;48.878;18.040;2023-02-02T11:25:57;98139.22;;;6.08;55.88
49297;BME280;35163;48.878;18.040;2023-02-02T11:28:25;98136.69;;;6.06;55.24
49297;BME280;35163;48.878;18.040;2023-02-02T11:30:56;98142.66;;;6.07;54.91
49297;BME280;35163;48.878;18.040;2023-02-02T11:33:33;98137.44;;;6.12;55.29
49297;BME280;35163;48.878;18.040;2023-02-02T11:36:06;98136.63;;;6.10;55.18
49297;BME280;35163;48.878;18.040;2023-02-02T11:38:43;98134.03;;;6.10;55.28
49297;BME280;35163;48.878;18.040;2023-02-02T11:41:10;98124.53;;;6.15;54.92
49297;BME280;35163;48.878;18.040;2023-02-02T11:46:22;98131.47;;;6.11;54.74
49297;BME280;35163;48.878;18.040;2023-02-02T11:49:04;98121.97;;;6.15;54.94
49297;BME280;35163;48.878;18.040;2023-02-02T11:51:33;98136.63;;;6.11;54.82
49297;BME280;35163;48.878;18.040;2023-02-02T11:56:50;98114.22;;;6.19;55.57
49297;BME280;35163;48.878;18.040;2023-02-02T11:59:32;98115.97;;;6.17;54.22
49297;BME280;35163;48.878;18.040;2023-02-02T12:04:46;98126.97;;;6.24;54.89
49297;BME280;35163;48.878;18.040;2023-02-02T12:07:26;98121.75;;;6.27;55.00
49297;BME280;35163;48.878;18.040;2023-02-02T12:09:56;98116.50;;;6.34;54.01
49297;BME280;35163;48.878;18.040;2023-02-02T12:17:46;98115.50;;;6.41;54.18
49297;BME280;35163;48.878;18.040;2023-02-02T12:20:30;98117.25;;;6.40;54.44
49297;BME280;35163;48.878;18.040;2023-02-02T12:23:21;98123.22;;;6.41;53.82
49297;BME280;35163;48.878;18.040;2023-02-02T12:26:06;98114.66;;;6.42;53.95
49297;BME280;35163;48.878;18.040;2023-02-02T12:31:34;98115.53;;;6.39;54.29
49297;BME280;35163;48.878;18.040;2023-02-02T12:36:48;98119.78;;;6.42;55.64
49297;BME280;35163;48.878;18.040;2023-02-02T12:39:20;98128.41;;;6.38;53.64
49297;BME280;35163;48.878;18.040;2023-02-02T12:44:46;98121.41;;;6.46;54.39
49297;BME280;35163;48.878;18.040;2023-02-02T12:47:26;98141.06;;;6.49;53.13
49297;BME280;35163;48.878;18.040;2023-02-02T12:52:53;98132.50;;;6.48;53.68
49297;BME280;35163;48.878;18.040;2023-02-02T12:58:05;98133.31;;;6.50;54.17
49297;BME280;35163;48.878;18.040;2023-02-02T13:12:45;98135.06;;;6.48;54.99
49297;BME280;35163;48.878;18.040;2023-02-02T13:15:19;98142.88;;;6.43;55.36
49297;BME280;35163;48.878;18.040;2023-02-02T13:17:57;98127.50;;;6.42;55.38
49297;BME280;35163;48.878;18.040;2023-02-02T13:20:40;98129.06;;;6.48;55.69
49297;BME280;35163;48.878;18.040;2023-02-02T13:23:31;98135.06;;;6.48;55.46
49297;BME280;35163;48.878;18.040;2023-02-02T13:26:04;98141.97;;;6.46;55.64
49297;BME280;35163;48.878;18.040;2023-02-02T13:28:40;98128.19;;;6.50;55.07
49297;BME280;35163;48.878;18.040;2023-02-02T13:31:27;98131.69;;;6.46;54.73
49297;BME280;35163;48.878;18.040;2023-02-02T13:34:19;98134.19;;;6.49;54.82
49297;BME280;35163;48.878;18.040;2023-02-02T13:37:01;98144.63;;;6.41;54.71
49297;BME280;35163;48.878;18.040;2023-02-02T13:39:35;98142.78;;;6.48;54.84
49297;BME280;35163;48.878;18.040;2023-02-02T13:42:05;98142.03;;;6.43;54.94
49297;BME280;35163;48.878;18.040;2023-02-02T13:44:46;98149.75;;;6.41;54.98
49297;BME280;35163;48.878;18.040;2023-02-02T13:47:32;98153.31;;;6.34;55.18
49297;BME280;35163;48.878;18.040;2023-02-02T13:50:05;98162.00;;;6.28;55.39
49297;BME280;35163;48.878;18.040;2023-02-02T13:56:00;98155.25;;;6.21;55.31
49297;BME280;35163;48.878;18.040;2023-02-02T13:58:51;98162.13;;;6.19;55.48
49297;BME280;35163;48.878;18.040;2023-02-02T14:01:21;98157.84;;;6.21;55.31
49297;BME280;35163;48.878;18.040;2023-02-02T14:03:53;98168.88;;;6.26;55.66
49297;BME280;35163;48.878;18.040;2023-02-02T14:06:26;98170.53;;;6.29;55.40
49297;BME280;35163;48.878;18.040;2023-02-02T14:08:55;98177.31;;;6.33;55.35
49297;BME280;35163;48.878;18.040;2023-02-02T14:11:33;98187.75;;;6.22;55.25
49297;BME280;35163;48.878;18.040;2023-02-02T14:14:16;98201.41;;;6.24;56.97
49297;BME280;35163;48.878;18.040;2023-02-02T14:22:04;98179.84;;;5.81;65.99
49297;BME280;35163;48.878;18.040;2023-02-02T14:24:47;98182.44;;;5.79;65.55
49297;BME280;35163;48.878;18.040;2023-02-02T14:43:15;98207.31;;;5.74;62.70
49297;BME280;35163;48.878;18.040;2023-02-02T14:48:48;98212.38;;;5.79;60.90
49297;BME280;35163;48.878;18.040;2023-02-02T14:51:33;98201.34;;;5.75;60.64
49297;BME280;35163;48.878;18.040;2023-02-02T14:54:19;98209.84;;;5.76;60.36
49297;BME280;35163;48.878;18.040;2023-02-02T14:56:50;98194.41;;;5.79;60.45
49297;BME280;35163;48.878;18.040;2023-02-02T14:59:25;98208.09;;;5.79;59.79
49297;BME280;35163;48.878;18.040;2023-02-02T15:02:24;98200.53;;;5.71;59.71
49297;BME280;35163;48.878;18.040;2023-02-02T15:08:22;98214.34;;;5.61;58.19
49297;BME280;35163;48.878;18.040;2023-02-02T15:13:33;98230.69;;;5.55;59.42
49297;BME280;35163;48.878;18.040;2023-02-02T15:16:10;98239.25;;;5.51;59.74
49297;BME280;35163;48.878;18.040;2023-02-02T15:18:43;98247.84;;;5.50;60.07
49297;BME280;35163;48.878;18.040;2023-02-02T15:21:15;98254.66;;;5.53;59.92
49297;BME280;35163;48.878;18.040;2023-02-02T15:23:44;98271.75;;;5.52;59.66
49297;BME280;35163;48.878;18.040;2023-02-02T15:26:21;98275.34;;;5.40;60.38
49297;BME280;35163;48.878;18.040;2023-02-02T15:28:51;98285.56;;;5.42;60.18
49297;BME280;35163;48.878;18.040;2023-02-02T15:31:27;98278.66;;;5.47;60.32
49297;BME280;35163;48.878;18.040;2023-02-02T15:33:58;98280.47;;;5.39;60.76
49297;BME280;35163;48.878;18.040;2023-02-02T15:36:30;98289.88;;;5.38;60.87